Time;durP1;ratioP1;P1;durP2;ratioP2;P2;SDS_P1;SDS_P2;PMS_P1;PMS_P2;Temp;Humidity;BMP_temperature;BMP_pressure;BME280_temperature;BME280_humidity;BME280_pressure;Samples;Min_cycle;Max_cycle;Signal;HPM_P1;HPM_P2
2020/12/03 00:00:41;;;;;;;42.50;22.50;;;-0.20;88.70;;;;;;5001806;28;20201;-80
2020/12/03 00:03:20;;;;;;;40.07;22.93;;;-0.10;88.60;;;;;;5007708;28;20656;-79
2020/12/03 00:05:54;;;;;;;48.20;24.40;;;-0.10;88.60;;;;;;5001017;28;20934;-78
2020/12/03 00:08:22;;;;;;;44.63;24.57;;;-0.10;88.60;;;;;;5014089;28;20290;-77
2020/12/03 00:10:50;;;;;;;49.00;25.37;;;-0.10;88.60;;;;;;4998131;28;20228;-78
2020/12/03 00:13:24;;;;;;;46.40;24.27;;;-0.10;88.50;;;;;;5028273;28;20249;-79
2020/12/03 00:15:54;;;;;;;39.37;23.30;;;-0.10;88.50;;;;;;5029206;28;20263;-77
2020/12/03 00:18:21;;;;;;;46.67;24.13;;;-0.10;88.50;;;;;;5035786;28;20488;-79
2020/12/03 00:20:50;;;;;;;46.13;26.03;;;-0.10;88.60;;;;;;5027795;28;20185;-79
2020/12/03 00:23:18;;;;;;;48.20;25.13;;;-0.10;88.60;;;;;;5032277;28;20404;-81
2020/12/03 00:25:46;;;;;;;53.90;27.03;;;-0.10;88.60;;;;;;5018621;28;20199;-79
2020/12/03 00:28:14;;;;;;;52.10;25.10;;;-0.10;88.50;;;;;;5011758;28;20204;-77
2020/12/03 00:30:45;;;;;;;44.83;24.73;;;0.00;88.30;;;;;;5014506;28;20227;-80
2020/12/03 00:33:17;;;;;;;54.77;27.50;;;0.00;88.20;;;;;;5029443;28;20544;-78
2020/12/03 00:35:45;;;;;;;49.13;26.10;;;0.00;88.20;;;;;;5023640;28;20640;-79
2020/12/03 00:38:14;;;;;;;52.10;25.53;;;0.00;88.20;;;;;;5026197;28;20201;-79
2020/12/03 00:40:41;;;;;;;54.60;27.27;;;0.00;88.20;;;;;;5020332;28;20362;-78
2020/12/03 00:43:09;;;;;;;49.57;26.87;;;0.00;88.20;;;;;;5017821;28;20669;-79
2020/12/03 00:45:37;;;;;;;51.00;27.03;;;0.10;88.10;;;;;;4999298;28;20472;-79
2020/12/03 00:48:05;;;;;;;55.17;27.40;;;0.10;88.00;;;;;;5012253;28;20567;-79
2020/12/03 00:50:32;;;;;;;52.87;27.37;;;0.10;88.00;;;;;;5011824;28;20279;-78
2020/12/03 00:53:00;;;;;;;52.63;26.80;;;0.10;88.00;;;;;;5005639;28;20201;-79
2020/12/03 00:55:28;;;;;;;58.93;29.20;;;0.10;87.90;;;;;;5011437;28;20255;-79
2020/12/03 00:57:56;;;;;;;54.63;29.70;;;0.10;87.90;;;;;;5010501;28;20204;-79
2020/12/03 01:00:24;;;;;;;55.30;27.97;;;0.10;87.90;;;;;;5006665;28;20200;-79
2020/12/03 01:02:52;;;;;;;56.07;28.60;;;0.10;87.90;;;;;;5008486;28;20275;-78
2020/12/03 01:05:20;;;;;;;56.77;28.33;;;0.20;87.80;;;;;;5001086;28;20992;-78
2020/12/03 01:07:48;;;;;;;57.67;28.77;;;0.20;87.80;;;;;;5011572;28;20301;-79
2020/12/03 01:10:21;;;;;;;53.13;27.97;;;0.20;87.80;;;;;;5006492;28;20210;-79
2020/12/03 01:12:51;;;;;;;57.33;29.33;;;0.20;87.60;;;;;;5007878;28;20207;-77
2020/12/03 01:15:18;;;;;;;65.83;29.97;;;0.20;87.70;;;;;;5007598;28;20197;-76
2020/12/03 01:17:46;;;;;;;60.70;30.43;;;0.20;87.60;;;;;;4995840;28;20259;-80
2020/12/03 01:20:16;;;;;;;62.83;30.03;;;0.20;87.60;;;;;;5007239;28;20200;-79
2020/12/03 01:22:44;;;;;;;53.83;28.23;;;0.20;87.60;;;;;;5010013;28;20654;-80
2020/12/03 01:25:12;;;;;;;64.43;31.60;;;0.20;87.70;;;;;;5008996;28;20201;-79
2020/12/03 01:27:41;;;;;;;66.07;30.53;;;0.20;87.70;;;;;;5007603;28;20453;-77
2020/12/03 01:30:10;;;;;;;60.57;30.00;;;0.20;87.70;;;;;;5017768;28;20206;-78
2020/12/03 01:32:40;;;;;;;57.83;28.20;;;0.20;87.60;;;;;;5007432;28;20225;-78
2020/12/03 01:35:10;;;;;;;51.13;25.33;;;0.20;87.60;;;;;;5013891;28;20198;-79
2020/12/03 01:37:38;;;;;;;50.20;26.10;;;0.20;87.30;;;;;;5006199;28;20922;-76
2020/12/03 01:40:08;;;;;;;49.53;25.27;;;0.20;87.10;;;;;;5009787;28;20210;-79
2020/12/03 01:42:38;;;;;;;49.27;25.03;;;0.30;87.00;;;;;;5028952;28;20202;-78
2020/12/03 01:45:39;;;;;;;45.83;24.23;;;0.30;87.00;;;;;;5010442;28;20427;-79
2020/12/03 01:48:15;;;;;;;46.40;24.47;;;0.30;86.80;;;;;;5014350;28;20440;-78
2020/12/03 01:50:42;;;;;;;47.23;25.27;;;0.40;86.80;;;;;;5007015;28;20700;-77
2020/12/03 01:53:11;;;;;;;46.73;24.57;;;0.30;86.70;;;;;;5013371;28;20196;-79
2020/12/03 01:55:39;;;;;;;47.67;24.73;;;0.30;86.70;;;;;;5013315;28;20216;-77
2020/12/03 01:58:07;;;;;;;49.50;26.87;;;0.30;86.70;;;;;;5001381;28;20733;-78
2020/12/03 02:00:35;;;;;;;52.27;27.13;;;0.30;86.70;;;;;;5008985;28;20595;-78
2020/12/03 02:03:02;;;;;;;60.97;29.87;;;0.30;86.90;;;;;;5003139;28;20211;-78
2020/12/03 02:05:32;;;;;;;61.80;29.63;;;0.30;86.80;;;;;;5009162;28;20687;-78
2020/12/03 02:08:00;;;;;;;58.30;29.53;;;0.30;86.90;;;;;;5001488;28;20211;-76
2020/12/03 02:10:27;;;;;;;50.80;28.13;;;0.30;86.90;;;;;;5011563;28;20253;-78
2020/12/03 02:12:55;;;;;;;56.13;28.83;;;0.30;86.80;;;;;;5001839;28;20224;-80
2020/12/03 02:15:22;;;;;;;58.67;29.83;;;0.40;86.80;;;;;;5003931;28;20202;-79
2020/12/03 02:17:50;;;;;;;62.60;31.77;;;0.40;86.60;;;;;;5006681;28;20201;-79
2020/12/03 02:20:20;;;;;;;61.37;30.87;;;0.40;86.50;;;;;;5003747;28;20465;-78
2020/12/03 02:22:49;;;;;;;71.93;33.07;;;0.40;86.50;;;;;;5012344;28;20414;-79
2020/12/03 02:25:17;;;;;;;68.37;34.90;;;0.40;86.50;;;;;;5002878;28;20206;-79
2020/12/03 02:27:45;;;;;;;68.53;33.73;;;0.40;86.60;;;;;;5023899;28;20213;-77
2020/12/03 02:30:14;;;;;;;66.40;33.43;;;0.40;86.60;;;;;;5017860;28;20200;-78
2020/12/03 02:32:42;;;;;;;64.30;33.30;;;0.40;87.00;;;;;;5005590;28;20238;-78
2020/12/03 02:35:12;;;;;;;60.20;31.17;;;0.40;86.70;;;;;;5012990;28;20223;-79
2020/12/03 02:37:42;;;;;;;60.37;32.00;;;0.30;86.60;;;;;;5011773;28;20407;-79
2020/12/03 02:40:09;;;;;;;61.73;31.53;;;0.40;86.70;;;;;;5004446;28;20658;-78
2020/12/03 02:42:38;;;;;;;60.17;30.17;;;0.40;86.60;;;;;;5011174;28;20260;-78
2020/12/03 02:45:06;;;;;;;55.17;30.47;;;0.40;86.60;;;;;;5013620;28;20295;-79
2020/12/03 02:47:33;;;;;;;55.97;29.83;;;0.40;86.40;;;;;;5012567;28;20197;-79
2020/12/03 02:50:01;;;;;;;59.37;31.10;;;0.40;86.40;;;;;;4998915;28;20240;-78
2020/12/03 02:52:29;;;;;;;54.40;29.27;;;0.40;86.50;;;;;;5009719;28;20300;-79
2020/12/03 02:54:58;;;;;;;59.50;30.07;;;0.40;86.50;;;;;;5007570;28;20200;-78
2020/12/03 02:57:25;;;;;;;56.97;30.23;;;0.40;86.50;;;;;;5008818;28;20265;-79
2020/12/03 02:59:52;;;;;;;50.60;28.27;;;0.40;86.50;;;;;;5007653;28;20206;-79
2020/12/03 03:02:20;;;;;;;54.00;28.43;;;0.40;86.40;;;;;;5011974;28;20221;-78
2020/12/03 03:04:48;;;;;;;51.53;28.27;;;0.40;86.20;;;;;;5018240;28;20230;-78
2020/12/03 03:07:15;;;;;;;54.20;28.40;;;0.40;86.20;;;;;;5025620;28;20213;-78
2020/12/03 03:09:43;;;;;;;47.43;27.17;;;0.40;86.10;;;;;;5035137;28;20255;-78
2020/12/03 03:12:11;;;;;;;49.90;27.40;;;0.40;86.10;;;;;;5016499;28;20240;-78
2020/12/03 03:14:39;;;;;;;46.97;26.70;;;0.40;86.20;;;;;;5018826;28;20201;-78
2020/12/03 03:17:06;;;;;;;45.03;26.37;;;0.40;86.20;;;;;;5008428;28;20272;-80
2020/12/03 03:19:34;;;;;;;50.30;27.17;;;0.40;86.10;;;;;;5016834;28;20229;-77
2020/12/03 03:22:04;;;;;;;45.60;25.23;;;0.40;86.20;;;;;;5011366;28;20205;-79
2020/12/03 03:24:31;;;;;;;45.53;26.77;;;0.40;86.20;;;;;;5012050;28;20213;-76
2020/12/03 03:26:58;;;;;;;46.63;25.77;;;0.30;86.10;;;;;;5009088;28;20463;-77
2020/12/03 03:29:27;;;;;;;46.03;26.07;;;0.40;86.10;;;;;;5000131;28;20482;-77
2020/12/03 03:31:55;;;;;;;42.90;24.93;;;0.40;86.20;;;;;;5015322;28;20225;-78
2020/12/03 03:34:22;;;;;;;42.80;25.03;;;0.40;86.10;;;;;;5006481;28;20977;-78
2020/12/03 03:36:50;;;;;;;43.73;25.13;;;0.30;86.10;;;;;;5009738;28;20205;-79
2020/12/03 03:39:20;;;;;;;47.03;25.37;;;0.30;86.10;;;;;;5006464;28;20216;-78
2020/12/03 03:41:48;;;;;;;43.50;24.90;;;0.40;86.30;;;;;;4999908;28;20680;-78
2020/12/03 03:44:16;;;;;;;43.70;25.17;;;0.40;86.20;;;;;;5005429;28;20215;-79
2020/12/03 03:46:44;;;;;;;43.57;26.57;;;0.30;86.20;;;;;;5015425;28;20364;-78
2020/12/03 03:49:12;;;;;;;41.37;24.93;;;0.30;86.10;;;;;;5013036;28;20549;-79
2020/12/03 03:51:40;;;;;;;41.80;23.33;;;0.30;85.80;;;;;;5008272;28;20273;-79
2020/12/03 03:54:08;;;;;;;41.00;24.17;;;0.30;85.90;;;;;;5002359;28;20200;-76
2020/12/03 03:56:36;;;;;;;44.27;24.93;;;0.30;85.70;;;;;;5007292;28;20229;-79
2020/12/03 03:59:04;;;;;;;46.23;25.47;;;0.30;85.90;;;;;;5009664;28;20688;-77
2020/12/03 04:01:31;;;;;;;44.97;24.80;;;0.40;86.10;;;;;;4982439;28;20216;-79
2020/12/03 04:04:00;;;;;;;38.23;23.43;;;0.30;85.90;;;;;;4999362;28;20389;-79
2020/12/03 04:06:27;;;;;;;43.40;24.53;;;0.30;86.10;;;;;;5010545;28;20204;-78
2020/12/03 04:08:55;;;;;;;39.37;23.33;;;0.20;86.00;;;;;;4997902;28;20299;-79
2020/12/03 04:11:22;;;;;;;37.77;21.10;;;0.30;86.20;;;;;;5012739;28;20359;-78
2020/12/03 04:13:51;;;;;;;38.77;22.43;;;0.30;85.90;;;;;;5013169;28;20290;-78
2020/12/03 04:16:18;;;;;;;32.23;20.27;;;0.20;85.70;;;;;;5008463;28;20214;-79
2020/12/03 04:18:46;;;;;;;39.80;21.20;;;0.20;85.90;;;;;;5013935;28;20731;-78
2020/12/03 04:21:16;;;;;;;35.30;21.17;;;0.20;86.00;;;;;;5009438;28;20200;-78
2020/12/03 04:23:43;;;;;;;38.27;20.90;;;0.20;86.00;;;;;;5016127;28;20580;-79
2020/12/03 04:26:13;;;;;;;38.93;21.20;;;0.20;86.20;;;;;;4999495;28;20206;-78
2020/12/03 04:28:41;;;;;;;35.10;20.47;;;0.10;86.20;;;;;;5008230;28;20200;-79
2020/12/03 04:31:10;;;;;;;35.57;19.57;;;0.10;86.30;;;;;;5012644;28;20276;-79
2020/12/03 04:33:37;;;;;;;39.80;20.27;;;0.10;86.30;;;;;;5030043;28;20263;-80
2020/12/03 04:36:05;;;;;;;34.13;19.60;;;0.10;86.30;;;;;;5018623;28;20193;-79
2020/12/03 04:38:33;;;;;;;34.73;19.23;;;0.10;86.30;;;;;;5013840;28;20733;-79
2020/12/03 04:41:01;;;;;;;32.73;19.27;;;0.10;86.20;;;;;;5008552;28;20319;-78
2020/12/03 04:43:33;;;;;;;33.63;19.17;;;0.10;86.40;;;;;;5005542;28;20206;-78
2020/12/03 04:46:06;;;;;;;32.90;19.33;;;0.20;86.30;;;;;;5007622;28;20641;-78
2020/12/03 04:48:51;;;;;;;31.23;17.87;;;0.20;86.20;;;;;;5009134;28;20208;-80
2020/12/03 04:51:38;;;;;;;32.07;18.83;;;0.20;86.20;;;;;;5016458;28;20260;-77
2020/12/03 04:54:28;;;;;;;26.57;16.67;;;0.30;86.10;;;;;;5022545;28;20274;-78
2020/12/03 04:57:05;;;;;;;31.93;19.40;;;0.20;86.10;;;;;;5027958;28;20204;-79
2020/12/03 04:59:46;;;;;;;34.87;19.50;;;0.30;86.20;;;;;;5023429;28;20544;-79
2020/12/03 05:02:41;;;;;;;32.27;17.67;;;0.20;86.20;;;;;;5010208;28;20206;-79
2020/12/03 05:05:24;;;;;;;39.50;20.27;;;0.20;86.30;;;;;;5012205;28;20227;-77
2020/12/03 05:08:00;;;;;;;33.17;19.67;;;0.20;86.30;;;;;;4994936;28;20734;-78
2020/12/03 05:10:38;;;;;;;35.17;20.27;;;0.20;86.50;;;;;;5006276;28;20260;-79
2020/12/03 05:13:14;;;;;;;33.53;19.83;;;0.20;86.40;;;;;;5011994;28;20230;-79
2020/12/03 05:15:42;;;;;;;30.53;18.53;;;0.10;86.40;;;;;;5010628;28;20196;-79
2020/12/03 05:18:41;;;;;;;33.17;19.23;;;0.20;86.50;;;;;;5013247;28;20207;-78
2020/12/03 05:21:13;;;;;;;35.13;18.70;;;0.20;86.40;;;;;;5014812;28;20204;-79
2020/12/03 05:23:41;;;;;;;33.33;19.00;;;0.20;86.40;;;;;;5010893;28;20231;-78
2020/12/03 05:26:15;;;;;;;32.93;19.10;;;0.20;86.40;;;;;;5015315;28;20265;-79
2020/12/03 05:28:55;;;;;;;35.57;20.33;;;0.10;86.50;;;;;;5009856;28;20360;-80
2020/12/03 05:31:28;;;;;;;33.97;19.40;;;0.10;86.50;;;;;;5017041;28;20201;-77
2020/12/03 05:33:58;;;;;;;30.57;17.20;;;0.10;86.40;;;;;;5013680;28;20211;-79
2020/12/03 05:36:31;;;;;;;30.43;17.83;;;0.10;86.40;;;;;;5013697;28;20291;-80
2020/12/03 05:39:02;;;;;;;31.87;18.47;;;0.10;86.40;;;;;;5008727;28;20203;-78
2020/12/03 05:41:36;;;;;;;30.13;17.33;;;0.10;86.40;;;;;;5007640;28;20208;-80
2020/12/03 05:44:22;;;;;;;31.03;18.07;;;0.10;86.70;;;;;;5019038;28;20211;-78
2020/12/03 05:46:51;;;;;;;30.90;17.73;;;0.00;86.50;;;;;;5036098;28;20203;-79
2020/12/03 05:49:26;;;;;;;32.53;18.07;;;0.00;86.60;;;;;;5031994;28;20432;-78
2020/12/03 05:52:07;;;;;;;29.00;16.70;;;0.00;86.70;;;;;;5004561;28;20239;-79
2020/12/03 05:54:35;;;;;;;36.10;19.13;;;-0.10;86.80;;;;;;5018355;28;20194;-79
2020/12/03 05:57:03;;;;;;;30.40;18.20;;;-0.10;86.90;;;;;;5026938;28;20203;-78
2020/12/03 05:59:31;;;;;;;25.97;14.73;;;-0.20;87.10;;;;;;5026885;28;20418;-79
2020/12/03 06:02:12;;;;;;;28.90;15.57;;;-0.20;87.30;;;;;;5019825;28;20474;-80
2020/12/03 06:04:45;;;;;;;30.13;17.50;;;-0.30;87.40;;;;;;5017740;28;20199;-77
2020/12/03 06:07:31;;;;;;;35.10;16.20;;;-0.30;87.50;;;;;;5013963;28;20277;-79
2020/12/03 06:10:34;;;;;;;28.70;16.20;;;-0.40;87.50;;;;;;5004575;28;20456;-79
2020/12/03 06:13:18;;;;;;;28.83;14.77;;;-0.40;87.60;;;;;;4997435;28;20674;-79
2020/12/03 06:15:50;;;;;;;26.73;15.67;;;-0.50;87.80;;;;;;5010664;28;20301;-77
2020/12/03 06:18:40;;;;;;;29.43;17.57;;;-0.50;87.90;;;;;;5009745;28;20237;-79
2020/12/03 06:21:23;;;;;;;36.57;17.77;;;-0.60;88.00;;;;;;5011120;28;20196;-78
2020/12/03 06:24:12;;;;;;;28.57;17.03;;;-0.60;88.10;;;;;;5010471;28;20211;-79
2020/12/03 06:26:51;;;;;;;28.87;15.23;;;-0.60;88.20;;;;;;5038791;28;20262;-81
2020/12/03 06:29:45;;;;;;;37.33;17.53;;;-0.60;88.30;;;;;;5023576;28;20183;-81
2020/12/03 06:32:55;;;;;;;34.30;18.80;;;-0.70;88.20;;;;;;5034000;28;20219;-82
2020/12/03 06:35:34;;;;;;;35.53;19.30;;;-0.70;88.40;;;;;;5022726;28;20270;-82
2020/12/03 06:38:18;;;;;;;27.73;14.17;;;-0.70;88.50;;;;;;5032380;28;20385;-83
2020/12/03 06:40:55;;;;;;;25.33;13.87;;;-0.70;88.70;;;;;;5042118;28;20429;-82
2020/12/03 06:43:28;;;;;;;26.33;14.97;;;-0.80;88.60;;;;;;5045356;28;20334;-82
2020/12/03 06:46:28;;;;;;;24.57;11.47;;;-0.80;88.80;;;;;;5038631;28;20179;-83
2020/12/03 06:49:23;;;;;;;21.80;13.70;;;-0.80;88.80;;;;;;5021389;28;20225;-80
2020/12/03 06:52:09;;;;;;;39.83;19.73;;;-0.80;88.90;;;;;;5023265;28;20912;-80
2020/12/03 06:55:05;;;;;;;29.00;17.53;;;-0.80;88.90;;;;;;5006067;28;20820;-80
2020/12/03 06:57:58;;;;;;;35.40;19.10;;;-0.80;89.00;;;;;;5026253;28;20206;-79
2020/12/03 07:01:16;;;;;;;35.47;18.77;;;-0.80;89.20;;;;;;5012744;28;20208;-81
2020/12/03 07:04:21;;;;;;;19.77;11.57;;;-0.80;89.00;;;;;;5003523;28;20226;-80
2020/12/03 07:07:25;;;;;;;35.37;19.03;;;-0.90;89.10;;;;;;5012642;28;20216;-82
2020/12/03 07:10:31;;;;;;;29.17;16.93;;;-0.80;89.10;;;;;;5017387;28;20209;-85
2020/12/03 07:13:28;;;;;;;36.27;20.00;;;-0.80;89.00;;;;;;5020451;28;20558;-81
2020/12/03 07:16:34;;;;;;;37.00;20.17;;;-0.80;89.00;;;;;;5007805;28;20206;-82
2020/12/03 07:19:31;;;;;;;36.40;20.17;;;-0.80;89.00;;;;;;5020282;28;20628;-82
2020/12/03 07:22:12;;;;;;;36.30;19.97;;;-0.80;89.20;;;;;;5015914;28;20199;-81
2020/12/03 07:24:43;;;;;;;37.67;20.60;;;-0.80;89.30;;;;;;5033192;28;20206;-83
2020/12/03 07:27:51;;;;;;;38.23;19.53;;;-0.80;89.30;;;;;;5019080;23;20231;-82
2020/12/03 07:30:36;;;;;;;34.63;20.27;;;-0.80;89.40;;;;;;5001619;28;20226;-81
2020/12/03 07:33:09;;;;;;;35.57;18.60;;;-0.80;89.40;;;;;;4981725;28;20616;-80
2020/12/03 07:35:46;;;;;;;35.87;19.60;;;-0.70;89.50;;;;;;4974654;28;20270;-79
2020/12/03 07:38:29;;;;;;;35.17;19.47;;;-0.70;89.40;;;;;;4981359;28;20278;-78
2020/12/03 07:41:01;;;;;;;35.17;19.90;;;-0.70;89.30;;;;;;4965666;28;20282;-82
2020/12/03 07:43:32;;;;;;;37.47;20.17;;;-0.60;89.30;;;;;;4977561;28;20211;-82
2020/12/03 07:46:00;;;;;;;37.90;19.93;;;-0.60;89.10;;;;;;4977305;28;20216;-81
2020/12/03 07:48:44;;;;;;;38.23;19.30;;;-0.60;89.10;;;;;;4972482;28;20200;-82
2020/12/03 07:51:16;;;;;;;36.10;19.63;;;-0.60;89.00;;;;;;4980440;28;20207;-80
2020/12/03 07:53:44;;;;;;;38.73;20.83;;;-0.50;89.10;;;;;;4978350;28;20240;-81
2020/12/03 07:56:33;;;;;;;37.83;19.90;;;-0.50;88.90;;;;;;4976373;28;20814;-82
2020/12/03 07:59:28;;;;;;;36.63;19.23;;;-0.40;88.90;;;;;;4979679;28;20231;-81
2020/12/03 08:01:59;;;;;;;37.57;20.57;;;-0.40;88.50;;;;;;4970590;28;20233;-80
2020/12/03 08:04:35;;;;;;;35.57;15.93;;;-0.40;88.40;;;;;;4979185;28;20290;-82
2020/12/03 08:07:32;;;;;;;35.83;21.87;;;-0.30;88.40;;;;;;4972871;28;20223;-83
2020/12/03 08:10:01;;;;;;;34.30;20.13;;;-0.30;88.40;;;;;;4979085;28;20270;-88
2020/12/03 08:12:31;;;;;;;43.33;21.57;;;-0.20;88.20;;;;;;4976645;28;20890;-79
2020/12/03 08:15:05;;;;;;;37.73;20.80;;;-0.10;88.20;;;;;;4984679;28;20791;-79
2020/12/03 08:17:50;;;;;;;35.87;19.60;;;-0.10;88.20;;;;;;4980993;28;20441;-79
2020/12/03 08:20:22;;;;;;;41.80;21.23;;;-0.20;87.80;;;;;;4983143;28;20208;-83
2020/12/03 08:23:06;;;;;;;35.73;21.07;;;-0.10;88.00;;;;;;4995315;28;20205;-81
2020/12/03 08:25:34;;;;;;;29.00;15.93;;;-0.10;87.80;;;;;;5010529;28;20212;-79
2020/12/03 08:28:04;;;;;;;36.63;20.17;;;-0.10;87.80;;;;;;5003952;28;20319;-80
2020/12/03 08:30:38;;;;;;;38.27;20.77;;;0.00;87.50;;;;;;4973296;28;20208;-81
2020/12/03 08:33:10;;;;;;;34.77;19.10;;;-0.20;87.50;;;;;;4968777;28;20310;-74
2020/12/03 08:35:38;;;;;;;37.23;20.90;;;-0.10;87.60;;;;;;4970023;28;20931;-77
2020/12/03 08:38:06;;;;;;;34.67;19.23;;;0.00;87.60;;;;;;4966368;28;20269;-77
2020/12/03 08:40:36;;;;;;;27.70;17.03;;;-0.10;87.50;;;;;;4968512;28;20209;-76
2020/12/03 08:43:08;;;;;;;34.27;19.07;;;-0.10;87.30;;;;;;4969315;28;20761;-77
2020/12/03 08:45:43;;;;;;;42.50;21.67;;;0.00;87.20;;;;;;4976978;28;20209;-75
2020/12/03 08:48:15;;;;;;;33.10;18.90;;;0.00;87.20;;;;;;4972255;28;20204;-78
2020/12/03 08:50:43;;;;;;;42.10;21.50;;;0.00;87.30;;;;;;4989973;28;20290;-75
2020/12/03 08:53:12;;;;;;;37.17;20.67;;;0.10;87.20;;;;;;4991734;28;20475;-76
2020/12/03 08:55:41;;;;;;;36.57;21.17;;;0.10;87.10;;;;;;5004180;28;20208;-77
2020/12/03 08:58:10;;;;;;;36.93;20.67;;;0.10;86.80;;;;;;4980113;28;20200;-78
2020/12/03 09:00:42;;;;;;;38.13;21.07;;;0.00;86.90;;;;;;4975858;28;20775;-76
2020/12/03 09:03:14;;;;;;;35.03;19.73;;;0.10;87.00;;;;;;4986520;28;20207;-75
2020/12/03 09:05:44;;;;;;;40.80;21.47;;;0.10;86.80;;;;;;4974168;28;21144;-75
2020/12/03 09:08:18;;;;;;;40.87;21.03;;;0.10;87.00;;;;;;4976891;28;20976;-76
2020/12/03 09:10:49;;;;;;;37.80;20.90;;;0.10;86.80;;;;;;4971101;28;20207;-76
2020/12/03 09:13:18;;;;;;;38.30;21.37;;;0.10;86.70;;;;;;4966412;28;20244;-77
2020/12/03 09:15:52;;;;;;;37.97;21.47;;;0.20;86.90;;;;;;4969556;28;21170;-74
2020/12/03 09:18:21;;;;;;;41.17;22.40;;;0.20;86.70;;;;;;4950613;28;20201;-77
2020/12/03 09:20:48;;;;;;;42.60;23.40;;;0.30;86.80;;;;;;4971511;28;20497;-78
2020/12/03 09:23:17;;;;;;;37.03;21.23;;;0.30;86.30;;;;;;4958742;28;20959;-76
2020/12/03 09:25:45;;;;;;;38.30;21.10;;;0.30;86.20;;;;;;4975874;28;20232;-76
2020/12/03 09:28:13;;;;;;;35.00;20.80;;;0.30;86.10;;;;;;4956344;28;20209;-78
2020/12/03 09:30:44;;;;;;;40.17;23.30;;;0.30;86.30;;;;;;4961647;28;20221;-77
2020/12/03 09:33:15;;;;;;;43.77;22.23;;;0.30;86.10;;;;;;4963716;28;20241;-74
2020/12/03 09:35:46;;;;;;;42.50;21.97;;;0.30;86.10;;;;;;4949656;28;21529;-78
2020/12/03 09:38:17;;;;;;;35.40;21.90;;;0.30;86.10;;;;;;4949523;28;20250;-75
2020/12/03 09:40:46;;;;;;;36.10;20.93;;;0.40;86.40;;;;;;4957651;28;20201;-76
2020/12/03 09:43:18;;;;;;;39.07;21.83;;;0.40;86.20;;;;;;4964188;28;21015;-75
2020/12/03 09:45:51;;;;;;;36.70;20.57;;;0.40;85.80;;;;;;4963747;28;20379;-75
2020/12/03 09:48:19;;;;;;;45.03;24.57;;;0.50;85.80;;;;;;4969354;28;20206;-79
2020/12/03 09:50:49;;;;;;;39.13;22.47;;;0.40;85.80;;;;;;4963731;28;20217;-81
2020/12/03 09:53:18;;;;;;;45.90;24.37;;;0.40;85.80;;;;;;4968317;28;20976;-79
2020/12/03 09:55:47;;;;;;;42.37;24.33;;;0.40;85.80;;;;;;4976241;28;20206;-79
2020/12/03 09:58:19;;;;;;;41.10;23.40;;;0.40;85.90;;;;;;4973230;28;21080;-81
2020/12/03 10:00:50;;;;;;;41.23;23.53;;;0.40;85.90;;;;;;4978019;28;20205;-82
2020/12/03 10:03:46;;;;;;;41.93;22.47;;;0.50;86.00;;;;;;4977541;28;20215;-80
2020/12/03 10:06:28;;;;;;;43.47;23.47;;;0.50;85.70;;;;;;4979723;28;20205;-79
2020/12/03 10:09:08;;;;;;;42.73;22.87;;;0.50;85.80;;;;;;4974108;28;20197;-78
2020/12/03 10:12:23;;;;;;;44.23;24.10;;;0.40;86.00;;;;;;4980036;28;20272;-75
2020/12/03 10:15:15;;;;;;;44.13;24.73;;;0.40;86.00;;;;;;4982806;28;20210;-80
2020/12/03 10:18:03;;;;;;;43.03;22.80;;;0.30;85.80;;;;;;5008309;28;20217;-79
2020/12/03 10:20:33;;;;;;;40.30;23.60;;;0.30;85.90;;;;;;5006689;28;20301;-79
2020/12/03 10:23:29;;;;;;;43.83;23.77;;;0.30;86.10;;;;;;4995541;28;20810;-81
2020/12/03 10:26:13;;;;;;;45.43;24.70;;;0.40;86.00;;;;;;4975698;28;20215;-81
2020/12/03 10:28:46;;;;;;;43.13;23.80;;;0.50;85.90;;;;;;4974977;28;20319;-81
2020/12/03 10:31:15;;;;;;;41.50;23.80;;;0.60;85.90;;;;;;4972651;28;20232;-79
2020/12/03 10:33:48;;;;;;;44.63;24.13;;;0.60;86.00;;;;;;4984000;28;20267;-78
2020/12/03 10:36:41;;;;;;;44.33;24.40;;;0.70;85.80;;;;;;4982155;28;20199;-80
2020/12/03 10:39:13;;;;;;;45.37;24.00;;;0.80;85.40;;;;;;4979978;28;20222;-78
2020/12/03 10:41:43;;;;;;;37.87;20.47;;;0.90;84.90;;;;;;4987678;28;20364;-81
2020/12/03 10:44:16;;;;;;;42.60;23.00;;;0.80;84.60;;;;;;4968876;28;20207;-80
2020/12/03 10:46:49;;;;;;;45.53;23.87;;;0.70;84.40;;;;;;4968227;28;20203;-80
2020/12/03 10:49:20;;;;;;;40.77;24.57;;;0.90;84.80;;;;;;4968230;28;20226;-80
2020/12/03 10:51:48;;;;;;;47.30;24.93;;;0.70;84.70;;;;;;4972194;28;20304;-80
2020/12/03 10:54:20;;;;;;;43.63;23.33;;;0.70;84.90;;;;;;4970543;28;20349;-80
2020/12/03 10:56:50;;;;;;;41.73;24.50;;;0.70;84.90;;;;;;4981816;28;20222;-81
2020/12/03 10:59:40;;;;;;;44.80;23.60;;;0.80;85.00;;;;;;4977192;28;20207;-79
2020/12/03 11:02:19;;;;;;;45.23;24.67;;;0.70;84.90;;;;;;4986845;28;20206;-80
2020/12/03 11:04:48;;;;;;;45.20;24.23;;;0.80;84.90;;;;;;4971729;28;20212;-80
2020/12/03 11:07:16;;;;;;;47.37;24.93;;;0.80;84.90;;;;;;4978364;28;20210;-82
2020/12/03 11:09:51;;;;;;;44.57;24.47;;;0.90;85.00;;;;;;4977835;28;21379;-80
2020/12/03 11:12:20;;;;;;;45.93;24.27;;;0.90;84.30;;;;;;4975843;28;20500;-82
2020/12/03 11:14:48;;;;;;;39.90;23.23;;;1.00;84.20;;;;;;4966332;28;20231;-78
2020/12/03 11:17:44;;;;;;;42.37;24.30;;;1.10;84.20;;;;;;4966392;28;20213;-80
2020/12/03 11:20:34;;;;;;;45.50;24.83;;;1.10;84.20;;;;;;4969664;28;21441;-81
2020/12/03 11:23:07;;;;;;;44.33;25.27;;;1.10;84.10;;;;;;4966999;28;20206;-80
2020/12/03 11:25:37;;;;;;;42.47;24.67;;;1.10;84.10;;;;;;4969321;28;20225;-80
2020/12/03 11:28:30;;;;;;;45.23;23.87;;;1.10;84.00;;;;;;4970253;28;20211;-81
2020/12/03 11:31:02;;;;;;;44.97;24.03;;;1.10;84.10;;;;;;4972158;28;21144;-80
2020/12/03 11:33:33;;;;;;;43.03;23.70;;;1.10;84.00;;;;;;4973598;28;20231;-82
2020/12/03 11:36:15;;;;;;;46.30;24.37;;;1.10;84.00;;;;;;4971563;28;20298;-80
2020/12/03 11:38:51;;;;;;;42.80;23.50;;;1.10;83.90;;;;;;4987512;28;20208;-80
2020/12/03 11:41:27;;;;;;;47.10;25.07;;;1.20;84.00;;;;;;4996673;28;20221;-80
2020/12/03 11:50:13;;;;;;;47.87;23.40;;;1.20;83.80;;;;;;4961413;28;20867;-78
2020/12/03 11:52:40;;;;;;;45.93;24.30;;;1.20;83.80;;;;;;4950527;28;20298;-80
2020/12/03 11:55:22;;;;;;;44.40;25.57;;;1.30;83.90;;;;;;4978700;28;20232;-79
2020/12/03 11:57:52;;;;;;;50.20;24.20;;;1.30;83.70;;;;;;4998372;28;20200;-81
2020/12/03 12:00:21;;;;;;;45.83;24.07;;;1.20;83.80;;;;;;5010599;28;20198;-79
2020/12/03 12:02:50;;;;;;;42.90;24.33;;;1.20;83.70;;;;;;5002588;28;21209;-79
2020/12/03 12:05:28;;;;;;;45.03;24.10;;;1.30;83.80;;;;;;5001525;28;20209;-79
2020/12/03 12:08:07;;;;;;;44.23;22.40;;;1.30;83.80;;;;;;4991180;28;20713;-82
2020/12/03 12:10:41;;;;;;;47.20;25.20;;;1.30;83.80;;;;;;5002759;28;20233;-79
2020/12/03 12:13:09;;;;;;;47.20;24.77;;;1.20;83.90;;;;;;4997049;28;20229;-82
2020/12/03 12:15:37;;;;;;;49.77;24.50;;;1.30;83.90;;;;;;5001917;28;20198;-81
2020/12/03 12:18:05;;;;;;;44.87;23.47;;;1.20;84.00;;;;;;5003447;28;20199;-81
2020/12/03 12:20:33;;;;;;;44.50;23.80;;;1.30;84.00;;;;;;5016395;28;20566;-82
2020/12/03 12:23:01;;;;;;;45.63;24.30;;;1.30;84.20;;;;;;5016257;28;20234;-80
2020/12/03 12:25:28;;;;;;;43.60;22.93;;;1.30;84.20;;;;;;4995649;28;20203;-80
2020/12/03 12:27:56;;;;;;;45.20;23.13;;;1.50;84.20;;;;;;4998390;28;20200;-79
2020/12/03 12:30:25;;;;;;;48.13;25.40;;;1.40;84.20;;;;;;5000705;28;20752;-80
2020/12/03 12:32:52;;;;;;;51.03;26.33;;;1.50;84.20;;;;;;5005909;28;20187;-80
2020/12/03 12:35:20;;;;;;;46.87;23.93;;;1.40;84.20;;;;;;5007492;28;20199;-79
2020/12/03 12:37:48;;;;;;;46.47;24.33;;;1.50;84.30;;;;;;5001997;28;20216;-80
2020/12/03 12:40:16;;;;;;;46.63;24.67;;;1.40;84.20;;;;;;4994325;28;20203;-79
2020/12/03 12:42:44;;;;;;;45.07;24.50;;;1.40;84.30;;;;;;5006543;28;20188;-80
2020/12/03 12:45:12;;;;;;;47.37;25.20;;;1.40;84.30;;;;;;5008219;28;20202;-81
2020/12/03 12:47:40;;;;;;;48.83;24.53;;;1.40;84.40;;;;;;5002458;28;20589;-80
2020/12/03 12:50:08;;;;;;;46.40;24.83;;;1.40;84.50;;;;;;4991361;28;20207;-81
2020/12/03 12:52:39;;;;;;;49.40;24.33;;;1.40;84.50;;;;;;4980203;28;20214;-81
2020/12/03 12:55:06;;;;;;;48.33;25.37;;;1.40;84.70;;;;;;4979891;28;20349;-80
2020/12/03 12:57:34;;;;;;;46.17;25.03;;;1.30;84.70;;;;;;4970394;28;20396;-80
2020/12/03 13:00:05;;;;;;;47.47;26.27;;;1.40;84.70;;;;;;4983507;28;20268;-79
2020/12/03 13:02:33;;;;;;;47.53;25.00;;;1.50;84.70;;;;;;4982144;28;20196;-79
2020/12/03 13:05:01;;;;;;;48.33;25.50;;;1.50;84.90;;;;;;4985866;28;20200;-79
2020/12/03 13:07:29;;;;;;;48.27;25.00;;;1.40;84.90;;;;;;4991533;28;20200;-80
2020/12/03 13:09:57;;;;;;;48.13;25.53;;;1.40;84.90;;;;;;5011993;28;20199;-77
2020/12/03 13:12:24;;;;;;;49.50;26.70;;;1.40;84.80;;;;;;5017408;28;20510;-79
2020/12/03 13:14:53;;;;;;;49.37;27.00;;;1.40;84.80;;;;;;4999892;28;20210;-80